CST,Max TemperatureF,Mean TemperatureF,Min TemperatureF,Max Dew PointF,MeanDew PointF,Min DewpointF,Max Humidity, Mean Humidity, Min Humidity, Max Sea Level PressureIn, Mean Sea Level PressureIn, Min Sea Level PressureIn, Max VisibilityMiles, Mean VisibilityMiles, Min VisibilityMiles, Max Wind SpeedMPH, Mean Wind SpeedMPH, Max Gust SpeedMPH,PrecipitationIn, CloudCover, Events, WindDirDegrees
2013-2-1,5,-2,-9,1,-9,-17,85,64,47,30.33,30.23,30.09,10,8,2,13,7,18,0.00,3,Snow,247
2013-2-2,14,10,5,5,2,0,85,75,53,30.17,30.10,29.98,10,9,2,6,2,,0.00,6,Snow,293
2013-2-3,15,12,8,10,6,1,86,74,57,30.09,30.02,29.96,10,7,2,16,4,22,0.02,7,Snow,299
2013-2-4,19,11,3,9,4,0,85,66,42,30.06,29.97,29.89,10,9,2,6,2,,0.00,3,Snow,39
2013-2-5,30,16,3,25,15,0,93,78,67,30.11,29.87,29.71,10,8,1,16,5,24,0.09,5,Snow,286
2013-2-6,30,12,-4,25,9,-9,93,81,74,30.17,30.08,29.97,10,8,2,12,2,,0.00,5,Snow,148
2013-2-7,30,28,26,27,25,23,93,86,80,30.21,30.05,29.97,10,6,2,9,3,,0.00,8,,5
2013-2-8,28,19,10,23,14,7,92,70,51,30.39,30.32,30.22,10,10,10,8,3,,0.00,4,,50
2013-2-9,30,24,17,25,21,12,86,78,69,30.32,30.15,29.99,10,10,7,10,6,17,0.00,8,,157
2013-2-10,37,32,28,36,30,23,100,91,75,29.99,29.55,29.27,10,6,2,17,8,25,0.37,8,Rain-Snow,142
2013-2-11,33,27,21,32,22,12,93,78,68,30.05,29.72,29.27,10,9,3,24,12,31,0.02,8,Rain-Snow,294
2013-2-12,33,26,19,25,18,12,93,73,56,30.06,29.96,29.83,10,10,7,12,6,17,0.00,3,,250
2013-2-13,37,29,21,32,24,18,100,78,60,29.84,29.71,29.56,10,9,4,7,2,,0.02,5,Rain,228
2013-2-14,37,28,19,32,22,3,100,74,49,30.14,29.83,29.55,10,9,2,18,9,25,0.01,6,Rain-Snow,321
2013-2-15,19,14,10,5,3,1,67,59,46,30.28,30.24,30.14,10,10,10,18,7,22,0.00,1,,312
2013-2-16,19,12,5,5,2,0,85,67,49,30.25,30.20,30.16,10,10,10,10,4,,0.00,2,,304
2013-2-17,30,16,3,19,10,0,85,68,51,30.17,30.00,29.74,10,10,10,15,5,21,0.00,1,,142
2013-2-18,37,26,14,30,20,9,87,74,64,29.73,29.62,29.52,10,9,1,20,9,28,0.00,4,Snow,257
2013-2-19,14,8,3,9,0,-6,79,64,52,30.32,30.02,29.73,10,8,2,25,16,33,0.00,5,Snow,304
2013-2-20,19,10,0,9,0,-8,79,62,49,30.44,30.41,30.33,10,10,10,9,5,,0.00,1,,322
2013-2-21,23,14,5,18,8,1,85,70,54,30.45,30.31,30.07,10,10,2,15,4,20,0.00,1,Snow,97
2013-2-22,30,26,23,21,20,18,93,78,64,30.03,29.88,29.83,10,7,1,9,6,,0.14,8,Snow,33
2013-2-23,28,24,17,21,18,14,86,77,69,29.98,29.89,29.85,10,10,10,9,5,,0.00,8,,284
2013-2-24,33,18,3,23,13,0,93,75,52,30.12,30.07,29.98,10,10,5,4,0,,0.00,2,,290
2013-2-25,35,28,21,27,23,19,93,80,65,30.13,30.09,30.03,10,7,2,5,1,,0.00,6,Snow,136
2013-2-26,33,26,19,25,22,16,93,77,65,30.04,29.89,29.79,10,8,2,14,3,23,0.00,4,,38
2013-2-27,33,32,30,30,26,21,93,78,69,29.94,29.83,29.78,10,8,2,12,7,22,0.00,8,Snow,352
2013-2-28,32,30,28,28,22,16,87,70,59,30.19,30.08,29.95,10,10,10,12,6,16,0.00,8,,360